sensor_id;sensor_type;location;lat;lon;timestamp;P1;durP1;ratioP1;P2;durP2;ratioP2
70592;SDS011;58294;42.988;20.338;2023-06-05T00:02:24;8.95;;;6.80;;
70592;SDS011;58294;42.988;20.338;2023-06-05T00:04:51;9.68;;;7.30;;
70592;SDS011;58294;42.988;20.338;2023-06-05T00:07:17;9.35;;;7.72;;
70592;SDS011;58294;42.988;20.338;2023-06-05T00:09:43;9.32;;;7.65;;
70592;SDS011;58294;42.988;20.338;2023-06-05T00:12:10;9.63;;;7.63;;
70592;SDS011;58294;42.988;20.338;2023-06-05T00:14:36;10.48;;;7.32;;
70592;SDS011;58294;42.988;20.338;2023-06-05T00:17:02;9.98;;;7.22;;
70592;SDS011;58294;42.988;20.338;2023-06-05T00:19:28;7.72;;;6.18;;
70592;SDS011;58294;42.988;20.338;2023-06-05T00:21:55;7.82;;;6.85;;
70592;SDS011;58294;42.988;20.338;2023-06-05T00:24:22;5.95;;;5.35;;
70592;SDS011;58294;42.988;20.338;2023-06-05T00:26:48;7.05;;;6.35;;
70592;SDS011;58294;42.988;20.338;2023-06-05T00:29:14;6.85;;;5.72;;
70592;SDS011;58294;42.988;20.338;2023-06-05T00:31:40;9.10;;;6.63;;
70592;SDS011;58294;42.988;20.338;2023-06-05T00:34:05;8.07;;;6.43;;
70592;SDS011;58294;42.988;20.338;2023-06-05T00:36:31;10.07;;;7.20;;
70592;SDS011;58294;42.988;20.338;2023-06-05T00:38:57;8.43;;;6.63;;
70592;SDS011;58294;42.988;20.338;2023-06-05T00:41:23;8.68;;;7.60;;
70592;SDS011;58294;42.988;20.338;2023-06-05T00:43:49;9.07;;;7.32;;
70592;SDS011;58294;42.988;20.338;2023-06-05T00:46:15;9.73;;;6.75;;
70592;SDS011;58294;42.988;20.338;2023-06-05T00:48:41;9.00;;;7.40;;
70592;SDS011;58294;42.988;20.338;2023-06-05T00:51:09;6.82;;;6.13;;
70592;SDS011;58294;42.988;20.338;2023-06-05T00:53:39;8.15;;;6.15;;
70592;SDS011;58294;42.988;20.338;2023-06-05T00:56:05;6.93;;;5.72;;
70592;SDS011;58294;42.988;20.338;2023-06-05T00:58:31;7.05;;;6.18;;
70592;SDS011;58294;42.988;20.338;2023-06-05T01:00:57;5.78;;;5.18;;
70592;SDS011;58294;42.988;20.338;2023-06-05T01:03:24;6.63;;;5.88;;
70592;SDS011;58294;42.988;20.338;2023-06-05T01:05:54;5.68;;;4.80;;
70592;SDS011;58294;42.988;20.338;2023-06-05T01:08:28;7.13;;;5.47;;
70592;SDS011;58294;42.988;20.338;2023-06-05T01:11:03;6.20;;;4.85;;
70592;SDS011;58294;42.988;20.338;2023-06-05T01:13:42;6.18;;;4.90;;
70592;SDS011;58294;42.988;20.338;2023-06-05T01:16:16;7.07;;;5.75;;
70592;SDS011;58294;42.988;20.338;2023-06-05T01:18:43;8.43;;;5.50;;
70592;SDS011;58294;42.988;20.338;2023-06-05T01:21:13;6.82;;;5.38;;
70592;SDS011;58294;42.988;20.338;2023-06-05T01:23:42;8.02;;;5.10;;
70592;SDS011;58294;42.988;20.338;2023-06-05T01:26:09;8.20;;;5.45;;
70592;SDS011;58294;42.988;20.338;2023-06-05T01:28:43;5.75;;;5.15;;
70592;SDS011;58294;42.988;20.338;2023-06-05T01:31:12;8.90;;;4.50;;
70592;SDS011;58294;42.988;20.338;2023-06-05T01:33:46;7.22;;;4.88;;
70592;SDS011;58294;42.988;20.338;2023-06-05T01:36:22;6.18;;;5.13;;
70592;SDS011;58294;42.988;20.338;2023-06-05T01:38:49;6.43;;;5.07;;
70592;SDS011;58294;42.988;20.338;2023-06-05T01:41:16;5.43;;;4.88;;
70592;SDS011;58294;42.988;20.338;2023-06-05T01:43:44;5.45;;;4.78;;
70592;SDS011;58294;42.988;20.338;2023-06-05T01:46:12;5.38;;;4.88;;
70592;SDS011;58294;42.988;20.338;2023-06-05T01:48:39;9.82;;;4.72;;
70592;SDS011;58294;42.988;20.338;2023-06-05T01:51:06;6.18;;;4.60;;
70592;SDS011;58294;42.988;20.338;2023-06-05T01:53:32;9.52;;;4.50;;
70592;SDS011;58294;42.988;20.338;2023-06-05T01:55:58;6.47;;;5.13;;
70592;SDS011;58294;42.988;20.338;2023-06-05T01:58:25;7.55;;;5.55;;
70592;SDS011;58294;42.988;20.338;2023-06-05T02:00:51;7.35;;;5.45;;
70592;SDS011;58294;42.988;20.338;2023-06-05T02:03:18;6.90;;;5.32;;
70592;SDS011;58294;42.988;20.338;2023-06-05T02:05:45;6.45;;;5.22;;
70592;SDS011;58294;42.988;20.338;2023-06-05T02:08:11;6.35;;;4.80;;
70592;SDS011;58294;42.988;20.338;2023-06-05T02:10:38;4.93;;;4.43;;
70592;SDS011;58294;42.988;20.338;2023-06-05T02:13:08;8.27;;;4.93;;
70592;SDS011;58294;42.988;20.338;2023-06-05T02:15:34;5.55;;;4.75;;
70592;SDS011;58294;42.988;20.338;2023-06-05T02:18:01;5.93;;;4.97;;
70592;SDS011;58294;42.988;20.338;2023-06-05T02:20:29;6.18;;;5.57;;
70592;SDS011;58294;42.988;20.338;2023-06-05T02:22:56;6.50;;;4.88;;
70592;SDS011;58294;42.988;20.338;2023-06-05T02:25:22;6.05;;;5.43;;
70592;SDS011;58294;42.988;20.338;2023-06-05T02:27:52;7.20;;;5.03;;
70592;SDS011;58294;42.988;20.338;2023-06-05T02:30:18;7.90;;;5.57;;
70592;SDS011;58294;42.988;20.338;2023-06-05T02:32:45;6.32;;;5.35;;
70592;SDS011;58294;42.988;20.338;2023-06-05T02:35:12;6.32;;;4.97;;
70592;SDS011;58294;42.988;20.338;2023-06-05T02:37:38;6.90;;;5.13;;
70592;SDS011;58294;42.988;20.338;2023-06-05T02:40:12;6.97;;;5.43;;
70592;SDS011;58294;42.988;20.338;2023-06-05T02:42:38;6.28;;;5.28;;
70592;SDS011;58294;42.988;20.338;2023-06-05T02:45:05;6.85;;;5.90;;
70592;SDS011;58294;42.988;20.338;2023-06-05T02:47:32;7.93;;;5.00;;
70592;SDS011;58294;42.988;20.338;2023-06-05T02:49:59;6.07;;;5.38;;
70592;SDS011;58294;42.988;20.338;2023-06-05T02:52:25;6.57;;;4.85;;
70592;SDS011;58294;42.988;20.338;2023-06-05T02:54:52;5.93;;;4.93;;
70592;SDS011;58294;42.988;20.338;2023-06-05T02:57:18;5.45;;;4.63;;
70592;SDS011;58294;42.988;20.338;2023-06-05T02:59:44;6.80;;;5.18;;
70592;SDS011;58294;42.988;20.338;2023-06-05T03:02:10;6.78;;;4.53;;
70592;SDS011;58294;42.988;20.338;2023-06-05T03:04:37;5.53;;;4.50;;
70592;SDS011;58294;42.988;20.338;2023-06-05T03:07:08;5.93;;;3.92;;
70592;SDS011;58294;42.988;20.338;2023-06-05T03:09:35;6.05;;;5.43;;
70592;SDS011;58294;42.988;20.338;2023-06-05T03:12:04;6.70;;;5.10;;
70592;SDS011;58294;42.988;20.338;2023-06-05T03:14:30;7.88;;;4.35;;
70592;SDS011;58294;42.988;20.338;2023-06-05T03:16:56;5.88;;;4.95;;
70592;SDS011;58294;42.988;20.338;2023-06-05T03:19:25;5.72;;;4.72;;
70592;SDS011;58294;42.988;20.338;2023-06-05T03:21:51;8.50;;;4.90;;
70592;SDS011;58294;42.988;20.338;2023-06-05T03:24:18;8.05;;;5.97;;
70592;SDS011;58294;42.988;20.338;2023-06-05T03:26:45;7.57;;;5.85;;
70592;SDS011;58294;42.988;20.338;2023-06-05T03:29:11;9.77;;;6.28;;
70592;SDS011;58294;42.988;20.338;2023-06-05T03:31:37;8.48;;;6.85;;
70592;SDS011;58294;42.988;20.338;2023-06-05T03:34:03;10.25;;;6.45;;
70592;SDS011;58294;42.988;20.338;2023-06-05T03:36:31;6.57;;;5.18;;
70592;SDS011;58294;42.988;20.338;2023-06-05T03:38:59;8.40;;;6.00;;
70592;SDS011;58294;42.988;20.338;2023-06-05T03:41:25;7.53;;;5.25;;
70592;SDS011;58294;42.988;20.338;2023-06-05T03:43:52;8.15;;;5.40;;
70592;SDS011;58294;42.988;20.338;2023-06-05T03:46:18;8.43;;;7.18;;
70592;SDS011;58294;42.988;20.338;2023-06-05T03:48:47;9.13;;;5.93;;
70592;SDS011;58294;42.988;20.338;2023-06-05T03:51:27;6.15;;;5.38;;
70592;SDS011;58294;42.988;20.338;2023-06-05T03:53:55;6.35;;;5.63;;
70592;SDS011;58294;42.988;20.338;2023-06-05T03:56:22;5.40;;;4.90;;
70592;SDS011;58294;42.988;20.338;2023-06-05T03:58:53;7.18;;;4.78;;
70592;SDS011;58294;42.988;20.338;2023-06-05T04:01:19;7.18;;;5.38;;
70592;SDS011;58294;42.988;20.338;2023-06-05T04:03:45;6.57;;;4.63;;
70592;SDS011;58294;42.988;20.338;2023-06-05T04:06:11;8.38;;;5.88;;
70592;SDS011;58294;42.988;20.338;2023-06-05T04:08:37;7.28;;;5.88;;
70592;SDS011;58294;42.988;20.338;2023-06-05T04:11:03;6.85;;;5.88;;
70592;SDS011;58294;42.988;20.338;2023-06-05T04:13:30;8.30;;;6.55;;
70592;SDS011;58294;42.988;20.338;2023-06-05T04:15:56;9.48;;;6.05;;
70592;SDS011;58294;42.988;20.338;2023-06-05T04:18:22;7.93;;;6.07;;
70592;SDS011;58294;42.988;20.338;2023-06-05T04:20:49;8.25;;;6.55;;
70592;SDS011;58294;42.988;20.338;2023-06-05T04:23:15;12.10;;;6.13;;
70592;SDS011;58294;42.988;20.338;2023-06-05T04:25:41;8.02;;;5.85;;
70592;SDS011;58294;42.988;20.338;2023-06-05T04:28:10;8.93;;;5.18;;
70592;SDS011;58294;42.988;20.338;2023-06-05T04:30:36;8.65;;;5.93;;
70592;SDS011;58294;42.988;20.338;2023-06-05T04:33:03;11.75;;;6.60;;
70592;SDS011;58294;42.988;20.338;2023-06-05T04:35:31;7.15;;;5.88;;
70592;SDS011;58294;42.988;20.338;2023-06-05T04:38:00;6.82;;;5.28;;
70592;SDS011;58294;42.988;20.338;2023-06-05T04:40:26;7.40;;;6.13;;
70592;SDS011;58294;42.988;20.338;2023-06-05T04:42:52;7.10;;;5.38;;
70592;SDS011;58294;42.988;20.338;2023-06-05T04:45:19;12.18;;;8.90;;
70592;SDS011;58294;42.988;20.338;2023-06-05T04:47:46;7.63;;;6.32;;
70592;SDS011;58294;42.988;20.338;2023-06-05T04:50:21;6.60;;;5.60;;
70592;SDS011;58294;42.988;20.338;2023-06-05T04:52:50;7.50;;;6.57;;
70592;SDS011;58294;42.988;20.338;2023-06-05T04:55:17;7.47;;;6.13;;
70592;SDS011;58294;42.988;20.338;2023-06-05T04:57:44;6.25;;;5.50;;
70592;SDS011;58294;42.988;20.338;2023-06-05T05:00:11;6.95;;;5.68;;
70592;SDS011;58294;42.988;20.338;2023-06-05T05:02:37;7.32;;;5.45;;
70592;SDS011;58294;42.988;20.338;2023-06-05T05:05:03;5.50;;;4.90;;
70592;SDS011;58294;42.988;20.338;2023-06-05T05:07:29;6.50;;;5.18;;
70592;SDS011;58294;42.988;20.338;2023-06-05T05:09:56;7.68;;;5.13;;
70592;SDS011;58294;42.988;20.338;2023-06-05T05:12:21;6.70;;;5.32;;
70592;SDS011;58294;42.988;20.338;2023-06-05T05:14:47;10.32;;;5.63;;
70592;SDS011;58294;42.988;20.338;2023-06-05T05:17:13;7.88;;;5.18;;
70592;SDS011;58294;42.988;20.338;2023-06-05T05:19:44;6.07;;;4.47;;
70592;SDS011;58294;42.988;20.338;2023-06-05T05:22:10;6.63;;;4.60;;
70592;SDS011;58294;42.988;20.338;2023-06-05T05:24:36;4.95;;;4.50;;
70592;SDS011;58294;42.988;20.338;2023-06-05T05:27:02;6.20;;;5.03;;
70592;SDS011;58294;42.988;20.338;2023-06-05T05:29:28;5.25;;;4.20;;
70592;SDS011;58294;42.988;20.338;2023-06-05T05:31:54;6.13;;;4.90;;
70592;SDS011;58294;42.988;20.338;2023-06-05T05:34:20;4.90;;;4.07;;
70592;SDS011;58294;42.988;20.338;2023-06-05T05:36:46;4.93;;;4.32;;
70592;SDS011;58294;42.988;20.338;2023-06-05T05:39:12;7.15;;;6.43;;
70592;SDS011;58294;42.988;20.338;2023-06-05T05:41:38;6.00;;;5.28;;
70592;SDS011;58294;42.988;20.338;2023-06-05T05:44:04;6.95;;;4.82;;
70592;SDS011;58294;42.988;20.338;2023-06-05T05:46:30;7.47;;;5.18;;
70592;SDS011;58294;42.988;20.338;2023-06-05T05:48:56;5.72;;;5.13;;
70592;SDS011;58294;42.988;20.338;2023-06-05T05:51:22;10.82;;;5.18;;
70592;SDS011;58294;42.988;20.338;2023-06-05T05:53:48;5.45;;;4.88;;
70592;SDS011;58294;42.988;20.338;2023-06-05T05:56:15;7.15;;;4.90;;
70592;SDS011;58294;42.988;20.338;2023-06-05T05:58:41;4.85;;;4.35;;
70592;SDS011;58294;42.988;20.338;2023-06-05T06:01:08;6.72;;;5.55;;
70592;SDS011;58294;42.988;20.338;2023-06-05T06:03:37;6.65;;;5.63;;
70592;SDS011;58294;42.988;20.338;2023-06-05T06:06:04;5.93;;;4.80;;
70592;SDS011;58294;42.988;20.338;2023-06-05T06:08:32;6.38;;;4.93;;
70592;SDS011;58294;42.988;20.338;2023-06-05T06:10:58;6.10;;;4.80;;
70592;SDS011;58294;42.988;20.338;2023-06-05T06:13:24;13.20;;;11.05;;
70592;SDS011;58294;42.988;20.338;2023-06-05T06:15:51;6.88;;;5.63;;
70592;SDS011;58294;42.988;20.338;2023-06-05T06:18:17;8.68;;;6.57;;
70592;SDS011;58294;42.988;20.338;2023-06-05T06:20:44;9.18;;;5.75;;
70592;SDS011;58294;42.988;20.338;2023-06-05T06:23:10;12.65;;;10.35;;
70592;SDS011;58294;42.988;20.338;2023-06-05T06:25:36;7.45;;;5.97;;
70592;SDS011;58294;42.988;20.338;2023-06-05T06:28:04;6.53;;;5.75;;
70592;SDS011;58294;42.988;20.338;2023-06-05T06:30:31;6.68;;;5.63;;
70592;SDS011;58294;42.988;20.338;2023-06-05T06:32:57;8.07;;;5.80;;
70592;SDS011;58294;42.988;20.338;2023-06-05T06:35:26;8.32;;;5.82;;
70592;SDS011;58294;42.988;20.338;2023-06-05T06:37:53;7.43;;;6.00;;
70592;SDS011;58294;42.988;20.338;2023-06-05T06:40:20;6.70;;;5.20;;
70592;SDS011;58294;42.988;20.338;2023-06-05T06:42:46;9.10;;;6.82;;
70592;SDS011;58294;42.988;20.338;2023-06-05T06:45:12;9.13;;;7.60;;
70592;SDS011;58294;42.988;20.338;2023-06-05T06:47:38;10.40;;;6.78;;
70592;SDS011;58294;42.988;20.338;2023-06-05T06:50:05;11.38;;;8.52;;
70592;SDS011;58294;42.988;20.338;2023-06-05T06:52:32;9.23;;;7.50;;
70592;SDS011;58294;42.988;20.338;2023-06-05T06:54:58;8.95;;;7.10;;
70592;SDS011;58294;42.988;20.338;2023-06-05T06:57:24;10.60;;;7.60;;
70592;SDS011;58294;42.988;20.338;2023-06-05T06:59:51;13.55;;;9.38;;
70592;SDS011;58294;42.988;20.338;2023-06-05T07:02:19;14.98;;;8.20;;
70592;SDS011;58294;42.988;20.338;2023-06-05T07:04:45;11.82;;;8.05;;
70592;SDS011;58294;42.988;20.338;2023-06-05T07:07:15;7.47;;;6.63;;
70592;SDS011;58294;42.988;20.338;2023-06-05T07:09:43;14.45;;;8.32;;
70592;SDS011;58294;42.988;20.338;2023-06-05T07:12:10;10.25;;;7.22;;
70592;SDS011;58294;42.988;20.338;2023-06-05T07:14:36;8.25;;;7.38;;
70592;SDS011;58294;42.988;20.338;2023-06-05T07:17:03;9.73;;;8.55;;
70592;SDS011;58294;42.988;20.338;2023-06-05T07:19:29;9.00;;;7.78;;
70592;SDS011;58294;42.988;20.338;2023-06-05T07:21:59;9.18;;;8.02;;
70592;SDS011;58294;42.988;20.338;2023-06-05T07:24:26;10.40;;;7.95;;
70592;SDS011;58294;42.988;20.338;2023-06-05T07:26:56;11.43;;;8.85;;
70592;SDS011;58294;42.988;20.338;2023-06-05T07:29:22;11.27;;;8.77;;
70592;SDS011;58294;42.988;20.338;2023-06-05T07:31:53;12.82;;;8.35;;
70592;SDS011;58294;42.988;20.338;2023-06-05T07:34:20;9.90;;;8.45;;
70592;SDS011;58294;42.988;20.338;2023-06-05T07:36:46;10.68;;;8.80;;
70592;SDS011;58294;42.988;20.338;2023-06-05T07:39:13;17.52;;;9.95;;
70592;SDS011;58294;42.988;20.338;2023-06-05T07:41:39;13.73;;;8.43;;
70592;SDS011;58294;42.988;20.338;2023-06-05T07:44:08;18.20;;;9.68;;
70592;SDS011;58294;42.988;20.338;2023-06-05T07:46:34;12.82;;;8.90;;
70592;SDS011;58294;42.988;20.338;2023-06-05T07:49:00;13.00;;;7.45;;
70592;SDS011;58294;42.988;20.338;2023-06-05T07:51:27;15.07;;;9.35;;
70592;SDS011;58294;42.988;20.338;2023-06-05T07:53:52;10.70;;;8.02;;
70592;SDS011;58294;42.988;20.338;2023-06-05T07:56:18;9.43;;;7.18;;
70592;SDS011;58294;42.988;20.338;2023-06-05T07:58:44;11.40;;;8.40;;
70592;SDS011;58294;42.988;20.338;2023-06-05T08:01:11;10.45;;;8.40;;
70592;SDS011;58294;42.988;20.338;2023-06-05T08:03:38;13.23;;;9.90;;
70592;SDS011;58294;42.988;20.338;2023-06-05T08:06:03;9.77;;;7.95;;
70592;SDS011;58294;42.988;20.338;2023-06-05T08:08:29;12.77;;;8.43;;
70592;SDS011;58294;42.988;20.338;2023-06-05T08:10:56;11.07;;;7.70;;
70592;SDS011;58294;42.988;20.338;2023-06-05T08:13:21;10.38;;;8.27;;
70592;SDS011;58294;42.988;20.338;2023-06-05T08:15:47;12.73;;;8.27;;
70592;SDS011;58294;42.988;20.338;2023-06-05T08:18:14;10.48;;;8.00;;
70592;SDS011;58294;42.988;20.338;2023-06-05T08:20:41;9.48;;;8.15;;
70592;SDS011;58294;42.988;20.338;2023-06-05T08:23:07;10.88;;;8.68;;
70592;SDS011;58294;42.988;20.338;2023-06-05T08:25:33;9.57;;;8.52;;
70592;SDS011;58294;42.988;20.338;2023-06-05T08:27:58;11.57;;;8.70;;
70592;SDS011;58294;42.988;20.338;2023-06-05T08:30:25;12.25;;;9.60;;
70592;SDS011;58294;42.988;20.338;2023-06-05T08:32:50;19.23;;;9.90;;
70592;SDS011;58294;42.988;20.338;2023-06-05T08:35:17;13.35;;;10.07;;
70592;SDS011;58294;42.988;20.338;2023-06-05T08:37:42;9.52;;;8.45;;
70592;SDS011;58294;42.988;20.338;2023-06-05T08:40:08;9.98;;;8.25;;
70592;SDS011;58294;42.988;20.338;2023-06-05T08:42:37;9.75;;;8.63;;
70592;SDS011;58294;42.988;20.338;2023-06-05T08:45:07;13.93;;;8.88;;
70592;SDS011;58294;42.988;20.338;2023-06-05T08:47:38;19.13;;;9.52;;
70592;SDS011;58294;42.988;20.338;2023-06-05T08:50:06;11.80;;;8.55;;
70592;SDS011;58294;42.988;20.338;2023-06-05T08:52:33;10.77;;;8.70;;
70592;SDS011;58294;42.988;20.338;2023-06-05T08:55:06;11.82;;;8.57;;
70592;SDS011;58294;42.988;20.338;2023-06-05T08:57:37;13.90;;;9.52;;
70592;SDS011;58294;42.988;20.338;2023-06-05T09:00:05;9.90;;;8.73;;
70592;SDS011;58294;42.988;20.338;2023-06-05T09:02:35;13.70;;;9.48;;
70592;SDS011;58294;42.988;20.338;2023-06-05T09:05:02;12.15;;;9.00;;
70592;SDS011;58294;42.988;20.338;2023-06-05T09:07:29;10.13;;;8.68;;
70592;SDS011;58294;42.988;20.338;2023-06-05T09:09:56;16.55;;;9.57;;
70592;SDS011;58294;42.988;20.338;2023-06-05T09:12:22;9.68;;;8.13;;
70592;SDS011;58294;42.988;20.338;2023-06-05T09:17:26;8.98;;;8.13;;
70592;SDS011;58294;42.988;20.338;2023-06-05T09:19:51;9.82;;;8.52;;
70592;SDS011;58294;42.988;20.338;2023-06-05T09:22:18;13.38;;;9.05;;
70592;SDS011;58294;42.988;20.338;2023-06-05T09:24:58;16.60;;;8.98;;
70592;SDS011;58294;42.988;20.338;2023-06-05T09:27:26;13.82;;;8.50;;
70592;SDS011;58294;42.988;20.338;2023-06-05T09:29:56;12.43;;;8.65;;
70592;SDS011;58294;42.988;20.338;2023-06-05T09:32:29;12.73;;;7.90;;
70592;SDS011;58294;42.988;20.338;2023-06-05T09:34:55;13.10;;;8.02;;
70592;SDS011;58294;42.988;20.338;2023-06-05T09:37:34;11.55;;;7.68;;
70592;SDS011;58294;42.988;20.338;2023-06-05T09:40:01;11.00;;;8.48;;
70592;SDS011;58294;42.988;20.338;2023-06-05T09:42:32;13.60;;;8.45;;
70592;SDS011;58294;42.988;20.338;2023-06-05T09:44:59;10.18;;;8.70;;
70592;SDS011;58294;42.988;20.338;2023-06-05T09:47:25;13.15;;;8.85;;
70592;SDS011;58294;42.988;20.338;2023-06-05T09:49:51;17.60;;;9.52;;
70592;SDS011;58294;42.988;20.338;2023-06-05T09:52:18;14.25;;;9.20;;
70592;SDS011;58294;42.988;20.338;2023-06-05T09:54:45;14.75;;;9.13;;
70592;SDS011;58294;42.988;20.338;2023-06-05T09:57:12;10.43;;;7.95;;
70592;SDS011;58294;42.988;20.338;2023-06-05T09:59:52;12.65;;;9.30;;
70592;SDS011;58294;42.988;20.338;2023-06-05T10:02:20;15.10;;;9.80;;
70592;SDS011;58294;42.988;20.338;2023-06-05T10:04:47;13.63;;;8.55;;
70592;SDS011;58294;42.988;20.338;2023-06-05T10:07:14;10.63;;;8.80;;
70592;SDS011;58294;42.988;20.338;2023-06-05T10:09:42;10.50;;;9.38;;
70592;SDS011;58294;42.988;20.338;2023-06-05T10:12:08;12.52;;;9.35;;
70592;SDS011;58294;42.988;20.338;2023-06-05T10:14:35;13.40;;;9.20;;
70592;SDS011;58294;42.988;20.338;2023-06-05T10:17:02;10.63;;;9.13;;
70592;SDS011;58294;42.988;20.338;2023-06-05T10:19:30;10.90;;;8.82;;
70592;SDS011;58294;42.988;20.338;2023-06-05T10:21:56;10.25;;;8.73;;
70592;SDS011;58294;42.988;20.338;2023-06-05T10:24:27;8.77;;;7.88;;
70592;SDS011;58294;42.988;20.338;2023-06-05T10:32:07;8.77;;;7.88;;
70592;SDS011;58294;42.988;20.338;2023-06-05T10:39:47;14.30;;;8.10;;
70592;SDS011;58294;42.988;20.338;2023-06-05T10:42:21;10.00;;;7.35;;
70592;SDS011;58294;42.988;20.338;2023-06-05T10:44:48;13.02;;;8.05;;
70592;SDS011;58294;42.988;20.338;2023-06-05T10:52:43;16.50;;;8.70;;
70592;SDS011;58294;42.988;20.338;2023-06-05T10:55:09;7.88;;;6.68;;
70592;SDS011;58294;42.988;20.338;2023-06-05T11:00:31;8.93;;;5.97;;
70592;SDS011;58294;42.988;20.338;2023-06-05T11:02:57;10.07;;;7.18;;
70592;SDS011;58294;42.988;20.338;2023-06-05T11:05:25;7.68;;;6.18;;
70592;SDS011;58294;42.988;20.338;2023-06-05T11:08:10;11.65;;;7.25;;
70592;SDS011;58294;42.988;20.338;2023-06-05T11:24:30;8.88;;;5.28;;
70592;SDS011;58294;42.988;20.338;2023-06-05T11:26:57;8.27;;;6.57;;
70592;SDS011;58294;42.988;20.338;2023-06-05T11:29:23;7.65;;;6.35;;
70592;SDS011;58294;42.988;20.338;2023-06-05T11:31:51;10.90;;;7.20;;
70592;SDS011;58294;42.988;20.338;2023-06-05T11:34:17;7.18;;;5.78;;
70592;SDS011;58294;42.988;20.338;2023-06-05T11:36:43;6.57;;;5.90;;
70592;SDS011;58294;42.988;20.338;2023-06-05T11:39:10;6.82;;;6.05;;
70592;SDS011;58294;42.988;20.338;2023-06-05T11:41:44;27.50;;;10.05;;
70592;SDS011;58294;42.988;20.338;2023-06-05T11:44:11;10.98;;;5.93;;
70592;SDS011;58294;42.988;20.338;2023-06-05T11:46:39;14.48;;;6.60;;
70592;SDS011;58294;42.988;20.338;2023-06-05T11:49:06;6.38;;;5.78;;
70592;SDS011;58294;42.988;20.338;2023-06-05T11:51:33;5.93;;;4.93;;
70592;SDS011;58294;42.988;20.338;2023-06-05T11:54:00;12.55;;;6.10;;
70592;SDS011;58294;42.988;20.338;2023-06-05T11:56:27;7.32;;;5.93;;
70592;SDS011;58294;42.988;20.338;2023-06-05T11:58:54;7.13;;;5.55;;
70592;SDS011;58294;42.988;20.338;2023-06-05T12:01:20;6.82;;;5.43;;
70592;SDS011;58294;42.988;20.338;2023-06-05T12:03:47;8.48;;;5.43;;
70592;SDS011;58294;42.988;20.338;2023-06-05T12:06:14;11.43;;;6.47;;
70592;SDS011;58294;42.988;20.338;2023-06-05T12:08:41;17.20;;;6.40;;
70592;SDS011;58294;42.988;20.338;2023-06-05T12:11:26;9.13;;;5.65;;
70592;SDS011;58294;42.988;20.338;2023-06-05T12:13:53;6.15;;;5.30;;
70592;SDS011;58294;42.988;20.338;2023-06-05T12:16:29;13.63;;;8.90;;
70592;SDS011;58294;42.988;20.338;2023-06-05T12:18:57;6.15;;;5.35;;
70592;SDS011;58294;42.988;20.338;2023-06-05T12:21:23;5.88;;;5.10;;
70592;SDS011;58294;42.988;20.338;2023-06-05T12:24:02;13.57;;;5.65;;
70592;SDS011;58294;42.988;20.338;2023-06-05T12:26:29;8.38;;;5.78;;
70592;SDS011;58294;42.988;20.338;2023-06-05T12:29:12;8.98;;;6.03;;
70592;SDS011;58294;42.988;20.338;2023-06-05T12:31:38;29.80;;;8.88;;
70592;SDS011;58294;42.988;20.338;2023-06-05T12:34:05;9.18;;;5.22;;
70592;SDS011;58294;42.988;20.338;2023-06-05T12:36:31;10.10;;;6.00;;
70592;SDS011;58294;42.988;20.338;2023-06-05T12:39:04;5.90;;;5.25;;
70592;SDS011;58294;42.988;20.338;2023-06-05T12:41:33;11.35;;;6.15;;
70592;SDS011;58294;42.988;20.338;2023-06-05T12:44:00;11.40;;;5.18;;
70592;SDS011;58294;42.988;20.338;2023-06-05T12:46:26;6.63;;;4.78;;
70592;SDS011;58294;42.988;20.338;2023-06-05T12:48:53;7.22;;;4.85;;
70592;SDS011;58294;42.988;20.338;2023-06-05T12:51:19;9.75;;;4.25;;
70592;SDS011;58294;42.988;20.338;2023-06-05T12:53:45;8.38;;;5.72;;
70592;SDS011;58294;42.988;20.338;2023-06-05T12:56:11;8.48;;;6.03;;
70592;SDS011;58294;42.988;20.338;2023-06-05T12:58:37;7.45;;;5.57;;
70592;SDS011;58294;42.988;20.338;2023-06-05T13:01:03;11.50;;;5.93;;
70592;SDS011;58294;42.988;20.338;2023-06-05T13:03:29;6.20;;;4.13;;
70592;SDS011;58294;42.988;20.338;2023-06-05T13:05:55;5.82;;;5.22;;
70592;SDS011;58294;42.988;20.338;2023-06-05T13:08:21;5.35;;;4.35;;
70592;SDS011;58294;42.988;20.338;2023-06-05T13:10:47;9.57;;;5.28;;
70592;SDS011;58294;42.988;20.338;2023-06-05T13:13:12;6.63;;;5.03;;
70592;SDS011;58294;42.988;20.338;2023-06-05T13:15:40;7.05;;;5.60;;
70592;SDS011;58294;42.988;20.338;2023-06-05T13:18:07;7.38;;;5.50;;
70592;SDS011;58294;42.988;20.338;2023-06-05T13:20:34;5.63;;;5.13;;
70592;SDS011;58294;42.988;20.338;2023-06-05T13:23:00;5.63;;;5.03;;
70592;SDS011;58294;42.988;20.338;2023-06-05T13:25:26;7.25;;;5.32;;
70592;SDS011;58294;42.988;20.338;2023-06-05T13:27:52;6.53;;;5.45;;
70592;SDS011;58294;42.988;20.338;2023-06-05T13:30:18;11.60;;;8.90;;
70592;SDS011;58294;42.988;20.338;2023-06-05T13:32:43;13.48;;;8.35;;
70592;SDS011;58294;42.988;20.338;2023-06-05T13:35:10;13.98;;;6.95;;
70592;SDS011;58294;42.988;20.338;2023-06-05T13:37:36;5.55;;;4.97;;
70592;SDS011;58294;42.988;20.338;2023-06-05T13:40:03;8.70;;;7.57;;
70592;SDS011;58294;42.988;20.338;2023-06-05T13:42:35;10.82;;;5.72;;
70592;SDS011;58294;42.988;20.338;2023-06-05T13:45:01;6.05;;;4.68;;
70592;SDS011;58294;42.988;20.338;2023-06-05T13:47:28;5.43;;;4.93;;
70592;SDS011;58294;42.988;20.338;2023-06-05T13:49:54;18.48;;;14.18;;
70592;SDS011;58294;42.988;20.338;2023-06-05T13:52:20;6.45;;;5.70;;
70592;SDS011;58294;42.988;20.338;2023-06-05T13:54:46;5.70;;;4.55;;
70592;SDS011;58294;42.988;20.338;2023-06-05T13:57:12;11.73;;;6.68;;
70592;SDS011;58294;42.988;20.338;2023-06-05T13:59:39;10.50;;;5.93;;
70592;SDS011;58294;42.988;20.338;2023-06-05T14:02:05;15.90;;;6.45;;
70592;SDS011;58294;42.988;20.338;2023-06-05T14:04:31;8.80;;;5.47;;
70592;SDS011;58294;42.988;20.338;2023-06-05T14:06:57;16.67;;;6.70;;
70592;SDS011;58294;42.988;20.338;2023-06-05T14:09:24;18.23;;;8.02;;
70592;SDS011;58294;42.988;20.338;2023-06-05T14:11:50;14.50;;;5.93;;
70592;SDS011;58294;42.988;20.338;2023-06-05T14:14:15;10.48;;;6.43;;
70592;SDS011;58294;42.988;20.338;2023-06-05T14:16:41;10.18;;;5.45;;
70592;SDS011;58294;42.988;20.338;2023-06-05T14:19:07;6.47;;;4.90;;
70592;SDS011;58294;42.988;20.338;2023-06-05T14:21:33;17.42;;;5.75;;
70592;SDS011;58294;42.988;20.338;2023-06-05T14:23:58;10.25;;;5.00;;
70592;SDS011;58294;42.988;20.338;2023-06-05T14:26:24;9.27;;;5.28;;
70592;SDS011;58294;42.988;20.338;2023-06-05T14:28:50;8.07;;;5.40;;
70592;SDS011;58294;42.988;20.338;2023-06-05T14:31:16;11.45;;;5.65;;
70592;SDS011;58294;42.988;20.338;2023-06-05T14:33:42;6.22;;;5.45;;
70592;SDS011;58294;42.988;20.338;2023-06-05T14:36:08;7.38;;;5.50;;
70592;SDS011;58294;42.988;20.338;2023-06-05T14:38:34;13.30;;;7.00;;
70592;SDS011;58294;42.988;20.338;2023-06-05T14:41:00;10.68;;;6.35;;
70592;SDS011;58294;42.988;20.338;2023-06-05T14:43:26;10.27;;;6.57;;
70592;SDS011;58294;42.988;20.338;2023-06-05T14:45:52;30.13;;;9.32;;
70592;SDS011;58294;42.988;20.338;2023-06-05T14:48:19;7.90;;;5.20;;
70592;SDS011;58294;42.988;20.338;2023-06-05T14:50:45;11.82;;;6.47;;
70592;SDS011;58294;42.988;20.338;2023-06-05T14:53:12;9.88;;;6.00;;
70592;SDS011;58294;42.988;20.338;2023-06-05T14:55:38;14.35;;;6.95;;
70592;SDS011;58294;42.988;20.338;2023-06-05T14:58:04;10.60;;;6.13;;
70592;SDS011;58294;42.988;20.338;2023-06-05T15:00:32;6.95;;;4.93;;
70592;SDS011;58294;42.988;20.338;2023-06-05T15:02:58;7.55;;;4.82;;
70592;SDS011;58294;42.988;20.338;2023-06-05T15:05:24;7.15;;;5.35;;
70592;SDS011;58294;42.988;20.338;2023-06-05T15:07:50;17.88;;;7.28;;